createdAt,value
2023-05-04T00:02:10.460Z,10.80
2023-05-04T00:04:37.610Z,10.80
2023-05-04T00:07:04.510Z,10.80
2023-05-04T00:09:31.951Z,10.80
2023-05-04T00:11:59.060Z,10.70
2023-05-04T00:14:26.014Z,10.70
2023-05-04T00:16:52.862Z,10.70
2023-05-04T00:19:19.775Z,10.60
2023-05-04T00:21:47.191Z,10.60
2023-05-04T00:24:14.164Z,10.60
2023-05-04T00:26:41.220Z,10.50
2023-05-04T00:29:10.730Z,10.50
2023-05-04T00:31:37.705Z,10.50
2023-05-04T00:34:04.618Z,10.40
2023-05-04T00:36:31.538Z,10.40
2023-05-04T00:38:58.474Z,10.40
2023-05-04T00:41:25.451Z,10.40
2023-05-04T00:43:52.504Z,10.30
2023-05-04T00:46:20.027Z,10.30
2023-05-04T00:48:49.911Z,10.20
2023-05-04T00:51:20.688Z,10.20
2023-05-04T00:53:48.901Z,10.20
2023-05-04T00:56:16.991Z,10.20
2023-05-04T00:58:44.063Z,10.20
2023-05-04T01:01:11.515Z,10.20
2023-05-04T01:03:41.762Z,10.20
2023-05-04T01:06:56.273Z,10.20
2023-05-04T01:09:47.084Z,10.10
2023-05-04T01:12:29.935Z,10.10
2023-05-04T01:14:58.628Z,10.00
2023-05-04T01:17:25.653Z,10.00
2023-05-04T01:19:54.042Z,10.00
2023-05-04T01:22:21.904Z,10.00
2023-05-04T01:24:50.608Z,10.00
2023-05-04T01:27:38.322Z,10.00
2023-05-04T01:30:29.731Z,9.90
2023-05-04T01:33:01.115Z,9.90
2023-05-04T01:35:29.301Z,9.90
2023-05-04T01:37:56.954Z,9.90
2023-05-04T01:40:24.059Z,9.90
2023-05-04T01:42:51.411Z,9.90
2023-05-04T01:45:18.589Z,9.80
2023-05-04T01:47:45.851Z,9.80
2023-05-04T01:50:13.066Z,9.80
2023-05-04T01:52:40.067Z,9.70
2023-05-04T01:55:07.288Z,9.70
2023-05-04T01:57:34.206Z,9.70
2023-05-04T02:00:01.318Z,9.70
2023-05-04T02:02:28.230Z,9.60
2023-05-04T02:04:55.232Z,9.60
2023-05-04T02:07:22.147Z,9.60
2023-05-04T02:09:49.029Z,9.60
2023-05-04T02:12:16.014Z,9.60
2023-05-04T02:14:43.032Z,9.60
2023-05-04T02:17:10.224Z,9.60
2023-05-04T02:19:37.533Z,9.60
2023-05-04T02:22:04.570Z,9.50
2023-05-04T02:24:31.742Z,9.50
2023-05-04T02:26:58.703Z,9.40
2023-05-04T02:29:26.272Z,9.40
2023-05-04T02:31:53.536Z,9.40
2023-05-04T02:34:20.797Z,9.40
2023-05-04T02:36:47.688Z,9.40
2023-05-04T02:39:14.829Z,9.40
2023-05-04T02:41:41.904Z,9.30
2023-05-04T02:44:08.837Z,9.30
2023-05-04T02:46:35.709Z,9.20
2023-05-04T02:49:02.846Z,9.20
2023-05-04T02:51:32.355Z,9.20
2023-05-04T02:53:59.290Z,9.20
2023-05-04T02:56:26.554Z,9.20
2023-05-04T02:58:53.415Z,9.10
2023-05-04T03:01:20.454Z,9.10
2023-05-04T03:03:47.572Z,9.10
2023-05-04T03:06:14.616Z,9.00
2023-05-04T03:08:41.461Z,9.00
2023-05-04T03:11:08.327Z,9.00
2023-05-04T03:13:35.317Z,9.00
2023-05-04T03:16:02.735Z,8.90
2023-05-04T03:18:29.869Z,8.90
2023-05-04T03:20:57.463Z,8.90
2023-05-04T03:23:24.538Z,8.90
2023-05-04T03:25:51.417Z,8.90
2023-05-04T03:28:19.131Z,8.80
2023-05-04T03:30:46.094Z,8.80
2023-05-04T03:33:14.545Z,8.80
2023-05-04T03:35:42.205Z,8.80
2023-05-04T03:38:11.304Z,8.80
2023-05-04T03:40:38.212Z,8.70
2023-05-04T03:43:05.176Z,8.70
2023-05-04T03:45:32.068Z,8.70
2023-05-04T03:47:59.035Z,8.70
2023-05-04T03:50:27.324Z,8.70
2023-05-04T03:52:54.219Z,8.70
2023-05-04T03:55:23.787Z,8.60
2023-05-04T03:57:51.446Z,8.60
2023-05-04T04:00:19.170Z,8.60
2023-05-04T04:02:54.079Z,8.60
2023-05-04T04:05:21.129Z,8.60
2023-05-04T04:07:50.329Z,8.60
2023-05-04T04:10:17.211Z,8.60
2023-05-04T04:12:44.165Z,8.50
2023-05-04T04:15:11.732Z,8.50
2023-05-04T04:17:38.681Z,8.50
2023-05-04T04:20:06.807Z,8.50
2023-05-04T04:22:34.020Z,8.50
2023-05-04T04:25:01.138Z,8.50
2023-05-04T04:27:28.176Z,8.50
2023-05-04T04:29:55.153Z,8.50
2023-05-04T04:32:22.653Z,8.50
2023-05-04T04:34:50.127Z,8.50
2023-05-04T04:37:16.965Z,8.50
2023-05-04T04:39:43.933Z,8.40
2023-05-04T04:42:11.608Z,8.50
2023-05-04T04:44:39.348Z,8.50
2023-05-04T04:47:06.550Z,8.50
2023-05-04T04:49:33.472Z,8.50
2023-05-04T04:52:02.090Z,8.50
2023-05-04T04:54:29.216Z,8.50
2023-05-04T04:56:57.368Z,8.50
2023-05-04T04:59:24.860Z,8.50
2023-05-04T05:01:51.820Z,8.50
2023-05-04T05:04:19.636Z,8.60
2023-05-04T05:06:46.891Z,8.60
2023-05-04T05:09:14.239Z,8.60
2023-05-04T05:11:41.150Z,8.70
2023-05-04T05:14:10.453Z,8.70
2023-05-04T05:16:37.455Z,8.80
2023-05-04T05:19:04.433Z,8.80
2023-05-04T05:21:31.288Z,8.90
2023-05-04T05:23:58.164Z,9.00
2023-05-04T05:26:25.272Z,9.10
2023-05-04T05:28:52.181Z,9.20
2023-05-04T05:31:19.178Z,9.30
2023-05-04T05:33:46.061Z,9.40
2023-05-04T05:36:14.410Z,9.50
2023-05-04T05:38:41.288Z,9.60
2023-05-04T05:41:09.612Z,9.70
2023-05-04T05:43:38.555Z,9.80
2023-05-04T05:46:07.363Z,9.90
2023-05-04T05:48:34.461Z,10.10
2023-05-04T05:51:01.502Z,10.10
2023-05-04T05:53:28.509Z,10.20
2023-05-04T05:55:55.500Z,10.30
2023-05-04T05:58:22.981Z,10.40
2023-05-04T06:00:49.971Z,10.50
2023-05-04T06:03:17.019Z,10.60
2023-05-04T06:05:59.186Z,10.70
2023-05-04T06:08:34.184Z,10.80
2023-05-04T06:11:01.230Z,10.90
2023-05-04T06:13:28.279Z,11.00
2023-05-04T06:15:58.307Z,11.00
2023-05-04T06:18:25.528Z,11.10
2023-05-04T06:20:59.470Z,11.30
2023-05-04T06:23:29.559Z,11.30
2023-05-04T06:25:56.492Z,11.40
2023-05-04T06:28:23.388Z,11.50
2023-05-04T06:30:50.772Z,11.60
2023-05-04T06:33:17.786Z,11.60
2023-05-04T06:35:45.513Z,11.70
2023-05-04T06:38:12.427Z,11.80
2023-05-04T06:40:39.352Z,11.90
2023-05-04T06:43:06.648Z,12.00
2023-05-04T06:45:37.380Z,12.20
2023-05-04T06:48:04.779Z,12.30
2023-05-04T06:50:33.370Z,12.40
2023-05-04T06:53:07.731Z,12.50
2023-05-04T06:55:37.025Z,12.70
2023-05-04T06:58:04.909Z,12.80
2023-05-04T07:00:32.106Z,13.00
2023-05-04T07:02:58.974Z,13.20
2023-05-04T07:05:26.292Z,13.40
2023-05-04T07:07:53.356Z,13.40
2023-05-04T07:10:20.398Z,13.50
2023-05-04T07:12:47.385Z,13.60
2023-05-04T07:15:14.432Z,13.80
2023-05-04T07:17:41.649Z,14.00
2023-05-04T07:20:09.539Z,14.10
2023-05-04T07:22:36.590Z,14.30
2023-05-04T07:25:04.134Z,14.40
2023-05-04T07:27:31.268Z,14.50
2023-05-04T07:29:58.257Z,14.70
2023-05-04T07:32:25.411Z,14.80
2023-05-04T07:34:52.560Z,14.90
2023-05-04T07:37:19.607Z,15.00
2023-05-04T07:39:46.420Z,15.20
2023-05-04T07:42:13.236Z,15.30
2023-05-04T07:44:41.564Z,15.40
2023-05-04T07:47:08.863Z,15.60
2023-05-04T07:49:35.847Z,15.80
2023-05-04T07:52:04.101Z,16.00
2023-05-04T07:54:31.337Z,16.20
2023-05-04T07:56:58.316Z,16.40
2023-05-04T07:59:25.328Z,16.50
2023-05-04T08:01:52.256Z,16.70
2023-05-04T08:04:19.241Z,16.90
2023-05-04T08:06:46.427Z,17.10
2023-05-04T08:09:13.681Z,17.30
2023-05-04T08:11:40.523Z,17.50
2023-05-04T08:14:07.450Z,17.70
2023-05-04T08:16:34.661Z,17.80
2023-05-04T08:19:02.111Z,18.10
2023-05-04T08:21:29.135Z,18.20
2023-05-04T08:23:56.147Z,18.30
2023-05-04T08:26:24.378Z,18.50
2023-05-04T08:28:51.414Z,18.50
2023-05-04T08:31:18.693Z,18.60
2023-05-04T08:33:48.789Z,18.70
2023-05-04T08:36:15.636Z,18.80
2023-05-04T08:38:42.561Z,19.00
2023-05-04T08:41:10.906Z,19.10
2023-05-04T08:43:38.218Z,19.30
2023-05-04T08:46:06.735Z,19.40
2023-05-04T08:48:36.941Z,19.60
2023-05-04T08:51:04.450Z,19.90
2023-05-04T08:53:32.774Z,20.10
2023-05-04T08:56:04.215Z,20.40
2023-05-04T08:58:37.757Z,20.50
2023-05-04T09:01:08.355Z,20.50
2023-05-04T09:03:36.002Z,20.70
2023-05-04T09:06:03.486Z,20.70
2023-05-04T09:08:30.838Z,20.90
2023-05-04T09:10:58.427Z,21.10
2023-05-04T09:13:25.487Z,21.10
2023-05-04T09:15:57.695Z,21.20
2023-05-04T09:18:39.130Z,21.50
2023-05-04T09:21:08.970Z,21.70
2023-05-04T09:23:51.210Z,21.90
2023-05-04T09:26:37.418Z,22.00
2023-05-04T09:29:13.554Z,22.30
2023-05-04T09:31:47.470Z,22.50
2023-05-04T09:34:15.063Z,22.80
2023-05-04T09:36:42.433Z,22.80
2023-05-04T09:39:14.122Z,23.00
2023-05-04T09:41:42.212Z,23.20
2023-05-04T09:44:24.194Z,23.20
2023-05-04T09:46:59.768Z,23.20
2023-05-04T09:49:39.009Z,23.30
2023-05-04T09:52:06.908Z,23.40
2023-05-04T09:54:36.471Z,23.50
2023-05-04T09:57:18.027Z,23.70
2023-05-04T09:59:45.537Z,23.90
2023-05-04T10:02:22.872Z,24.00
2023-05-04T10:04:52.331Z,24.10
2023-05-04T10:07:20.849Z,24.30
2023-05-04T10:09:49.822Z,24.50
2023-05-04T10:12:17.067Z,24.80
2023-05-04T10:14:46.814Z,25.00
2023-05-04T10:17:39.983Z,25.30
2023-05-04T10:20:44.266Z,25.50
2023-05-04T10:23:46.825Z,25.80
2023-05-04T10:26:55.305Z,25.50
2023-05-04T10:29:33.183Z,25.50
2023-05-04T10:32:00.851Z,25.70
2023-05-04T10:34:32.751Z,26.00
2023-05-04T10:37:02.068Z,26.20
2023-05-04T10:39:33.998Z,26.30
2023-05-04T10:42:06.583Z,26.50
2023-05-04T10:44:54.978Z,26.60
2023-05-04T10:47:57.699Z,26.60
2023-05-04T10:50:24.628Z,26.70
2023-05-04T10:52:57.645Z,26.70
2023-05-04T10:55:26.388Z,26.70
2023-05-04T10:57:56.431Z,26.70
2023-05-04T11:00:37.172Z,26.70
2023-05-04T11:03:05.952Z,26.80
2023-05-04T11:05:48.381Z,26.90
2023-05-04T11:08:17.991Z,26.90
2023-05-04T11:10:47.346Z,27.00
2023-05-04T11:13:18.112Z,27.00
2023-05-04T11:15:47.617Z,26.90
2023-05-04T11:18:15.083Z,26.90
2023-05-04T11:20:42.813Z,27.30
2023-05-04T11:23:10.192Z,27.60
2023-05-04T11:25:37.987Z,27.80
2023-05-04T11:28:05.306Z,27.70
2023-05-04T11:30:34.810Z,27.50
2023-05-04T11:33:12.319Z,27.50
2023-05-04T11:35:40.497Z,27.60
2023-05-04T11:38:07.666Z,27.60
2023-05-04T11:40:37.521Z,27.80
2023-05-04T11:43:04.816Z,28.00
2023-05-04T11:45:36.363Z,28.00
2023-05-04T11:48:05.129Z,27.90
2023-05-04T11:50:32.437Z,27.90
2023-05-04T11:53:10.509Z,28.10
2023-05-04T11:55:38.097Z,28.30
2023-05-04T11:58:11.070Z,28.50
2023-05-04T12:00:47.045Z,28.60
2023-05-04T12:03:35.904Z,28.40
2023-05-04T12:06:10.749Z,28.30
2023-05-04T12:08:44.469Z,28.40
2023-05-04T12:11:25.271Z,28.80
2023-05-04T12:14:05.171Z,29.00
2023-05-04T12:16:33.102Z,29.00
2023-05-04T12:19:10.755Z,29.10
2023-05-04T12:21:58.406Z,29.20
2023-05-04T12:24:27.589Z,29.20
2023-05-04T12:26:54.563Z,29.20
2023-05-04T12:29:21.514Z,29.30
2023-05-04T12:31:48.449Z,29.10
2023-05-04T12:34:15.474Z,29.00
2023-05-04T12:36:42.298Z,29.10
2023-05-04T12:39:09.295Z,29.10
2023-05-04T12:41:36.128Z,29.10
2023-05-04T12:44:02.961Z,29.30
2023-05-04T12:46:30.072Z,29.30
2023-05-04T12:48:58.573Z,29.20
2023-05-04T12:51:25.642Z,29.10
2023-05-04T12:53:52.577Z,28.90
2023-05-04T12:56:19.663Z,28.90
2023-05-04T12:58:46.651Z,29.00
2023-05-04T13:01:13.841Z,29.10
2023-05-04T13:03:41.123Z,29.10
2023-05-04T13:06:08.857Z,29.10
2023-05-04T13:08:36.218Z,29.20
2023-05-04T13:11:03.234Z,29.10
2023-05-04T13:13:30.761Z,29.20
2023-05-04T13:16:00.655Z,29.40
2023-05-04T13:18:28.169Z,29.70
2023-05-04T13:20:56.280Z,29.60
2023-05-04T13:23:24.236Z,29.50
2023-05-04T13:25:52.148Z,29.40
2023-05-04T13:28:19.775Z,29.40
2023-05-04T13:30:46.952Z,29.40
2023-05-04T13:33:27.916Z,29.50
2023-05-04T13:35:58.867Z,29.70
2023-05-04T13:38:26.200Z,29.50
2023-05-04T13:40:54.058Z,29.60
2023-05-04T13:43:22.079Z,29.70
2023-05-04T13:45:48.980Z,29.80
2023-05-04T13:48:15.878Z,29.90
2023-05-04T13:50:42.891Z,29.80
2023-05-04T13:53:13.541Z,29.60
2023-05-04T13:55:41.368Z,29.60
2023-05-04T13:58:08.490Z,29.50
2023-05-04T14:00:35.803Z,29.30
2023-05-04T14:03:03.331Z,29.20
2023-05-04T14:05:30.695Z,29.00
2023-05-04T14:07:57.639Z,28.90
2023-05-04T14:10:24.801Z,28.80
2023-05-04T14:12:52.034Z,28.80
2023-05-04T14:15:22.669Z,28.80
2023-05-04T14:17:50.726Z,28.80
2023-05-04T14:20:18.275Z,28.90
2023-05-04T14:22:45.537Z,29.00
2023-05-04T14:25:13.321Z,29.20
2023-05-04T14:27:45.181Z,29.30
2023-05-04T14:30:16.814Z,29.30
2023-05-04T14:32:43.941Z,29.20
2023-05-04T14:35:12.671Z,29.00
2023-05-04T14:37:40.630Z,28.70
2023-05-04T14:40:12.983Z,28.20
2023-05-04T14:42:40.947Z,28.10
2023-05-04T14:45:09.698Z,28.10
2023-05-04T14:47:37.478Z,28.30
2023-05-04T14:50:07.394Z,28.50
2023-05-04T14:52:35.727Z,28.80
2023-05-04T14:55:07.103Z,29.10
2023-05-04T14:57:35.134Z,29.10
2023-05-04T15:00:08.020Z,28.80
2023-05-04T15:02:36.161Z,28.60
2023-05-04T15:05:03.389Z,28.60
2023-05-04T15:07:30.782Z,28.50
2023-05-04T15:09:57.859Z,28.50
2023-05-04T15:12:26.281Z,28.50
2023-05-04T15:14:54.170Z,28.60
2023-05-04T15:17:21.252Z,28.60
2023-05-04T15:19:48.481Z,28.60
2023-05-04T15:22:15.498Z,28.50
2023-05-04T15:24:43.520Z,28.40
2023-05-04T15:27:10.402Z,28.40
2023-05-04T15:29:37.252Z,28.40
2023-05-04T15:32:04.573Z,28.20
2023-05-04T15:34:31.628Z,28.10
2023-05-04T15:36:58.500Z,27.80
2023-05-04T15:39:26.955Z,27.60
2023-05-04T15:41:56.876Z,27.50
2023-05-04T15:44:24.238Z,27.50
2023-05-04T15:46:51.192Z,27.50
2023-05-04T15:49:19.162Z,27.60
2023-05-04T15:51:45.959Z,27.60
2023-05-04T15:54:13.349Z,27.60
2023-05-04T15:56:40.591Z,27.50
2023-05-04T15:59:07.700Z,27.40
2023-05-04T16:01:34.620Z,27.30
2023-05-04T16:04:02.109Z,27.20
2023-05-04T16:06:29.509Z,27.30
2023-05-04T16:09:09.977Z,27.10
2023-05-04T16:11:37.538Z,27.10
2023-05-04T16:14:05.232Z,27.10
2023-05-04T16:16:32.418Z,27.00
2023-05-04T16:18:59.305Z,26.90
2023-05-04T16:21:26.149Z,26.80
2023-05-04T16:23:53.037Z,26.80
2023-05-04T16:26:20.017Z,26.80
2023-05-04T16:28:46.934Z,26.80
2023-05-04T16:31:15.085Z,26.80
2023-05-04T16:33:47.184Z,26.80
2023-05-04T16:36:14.882Z,26.70
2023-05-04T16:38:41.874Z,26.70
2023-05-04T16:41:08.679Z,26.70
2023-05-04T16:43:35.596Z,26.70
2023-05-04T16:46:02.736Z,26.60
2023-05-04T16:48:31.005Z,26.60
2023-05-04T16:50:57.923Z,26.50
2023-05-04T16:53:25.527Z,26.50
2023-05-04T16:55:52.549Z,26.50
2023-05-04T16:58:19.430Z,26.50
2023-05-04T17:00:46.372Z,26.40
2023-05-04T17:03:13.562Z,26.30
2023-05-04T17:05:40.677Z,26.10
2023-05-04T17:08:07.652Z,26.00
2023-05-04T17:10:34.588Z,25.90
2023-05-04T17:13:02.505Z,25.80
2023-05-04T17:15:30.099Z,25.60
2023-05-04T17:17:57.172Z,25.50
2023-05-04T17:20:28.674Z,25.50
2023-05-04T17:22:58.586Z,25.40
2023-05-04T17:25:27.079Z,25.40
2023-05-04T17:27:54.820Z,25.40
2023-05-04T17:30:22.148Z,25.40
2023-05-04T17:32:51.971Z,25.40
2023-05-04T17:35:25.693Z,25.30
2023-05-04T17:37:58.849Z,25.20
2023-05-04T17:40:28.922Z,25.10
2023-05-04T17:42:57.232Z,25.10
2023-05-04T17:45:34.130Z,25.00
2023-05-04T17:48:07.579Z,24.90
2023-05-04T17:50:46.794Z,24.90
2023-05-04T17:53:18.445Z,24.90
2023-05-04T17:55:53.598Z,24.80
2023-05-04T17:58:28.817Z,24.80
2023-05-04T18:01:10.798Z,24.80
2023-05-04T18:03:42.273Z,24.70
2023-05-04T18:06:20.621Z,24.70
2023-05-04T18:08:54.930Z,24.70
2023-05-04T18:11:26.777Z,24.70
2023-05-04T18:13:59.073Z,24.60
2023-05-04T18:16:27.505Z,24.60
2023-05-04T18:18:58.428Z,24.50
2023-05-04T18:21:26.242Z,24.40
2023-05-04T18:23:54.110Z,24.30
2023-05-04T18:26:22.750Z,24.20
2023-05-04T18:28:51.057Z,24.10
2023-05-04T18:31:18.968Z,24.10
2023-05-04T18:33:46.066Z,24.00
2023-05-04T18:36:13.070Z,24.00
2023-05-04T18:38:41.020Z,23.90
2023-05-04T18:41:08.318Z,23.80
2023-05-04T18:43:35.655Z,23.80
2023-05-04T18:46:09.112Z,23.80
2023-05-04T18:48:36.379Z,23.60
2023-05-04T18:51:03.556Z,23.60
2023-05-04T18:53:31.211Z,23.50
2023-05-04T18:56:07.634Z,23.30
2023-05-04T18:58:38.197Z,23.20
2023-05-04T19:01:07.052Z,23.10
2023-05-04T19:03:34.408Z,22.90
2023-05-04T19:06:01.998Z,22.80
2023-05-04T19:08:29.419Z,22.70
2023-05-04T19:11:00.677Z,22.60
2023-05-04T19:13:28.892Z,22.50
2023-05-04T19:15:56.566Z,22.40
2023-05-04T19:18:25.784Z,22.20
2023-05-04T19:20:54.935Z,22.20
2023-05-04T19:23:23.303Z,22.10
2023-05-04T19:25:51.945Z,22.00
2023-05-04T19:28:20.214Z,21.90
2023-05-04T19:30:49.814Z,21.90
2023-05-04T19:33:19.552Z,21.80
2023-05-04T19:35:48.680Z,21.80
2023-05-04T19:38:19.352Z,21.70
2023-05-04T19:40:52.501Z,21.60
2023-05-04T19:43:24.484Z,21.60
2023-05-04T19:45:55.798Z,21.50
2023-05-04T19:48:30.453Z,21.50
2023-05-04T19:51:00.818Z,21.40
2023-05-04T19:53:32.077Z,21.30
2023-05-04T19:56:05.611Z,21.30
2023-05-04T19:58:40.330Z,21.30
2023-05-04T20:01:24.022Z,21.20
2023-05-04T20:04:02.306Z,21.10
2023-05-04T20:06:39.468Z,21.10
2023-05-04T20:09:15.750Z,21.00
2023-05-04T20:11:51.377Z,21.00
2023-05-04T20:14:28.105Z,20.90
2023-05-04T20:17:02.897Z,20.80
2023-05-04T20:19:40.610Z,20.80
2023-05-04T20:22:16.198Z,20.70
2023-05-04T20:24:52.097Z,20.70
2023-05-04T20:27:26.722Z,20.70
2023-05-04T20:30:01.508Z,20.70
2023-05-04T20:32:37.238Z,20.60
2023-05-04T20:35:11.826Z,20.60
2023-05-04T20:37:43.541Z,20.60
2023-05-04T20:40:19.090Z,20.50
2023-05-04T20:42:51.579Z,20.40
2023-05-04T20:45:26.023Z,20.30
2023-05-04T20:48:04.152Z,20.20
2023-05-04T20:50:36.869Z,20.20
2023-05-04T20:53:14.502Z,20.10
2023-05-04T20:55:48.200Z,20.10
2023-05-04T20:58:20.509Z,20.00
2023-05-04T21:00:52.939Z,19.90
2023-05-04T21:03:23.891Z,19.90
2023-05-04T21:05:54.767Z,19.80
2023-05-04T21:08:27.226Z,19.80
2023-05-04T21:11:01.479Z,19.70
2023-05-04T21:13:32.657Z,19.60
2023-05-04T21:16:06.595Z,19.50
2023-05-04T21:18:37.546Z,19.40
2023-05-04T21:21:11.363Z,19.30
2023-05-04T21:23:41.821Z,19.30
2023-05-04T21:26:10.401Z,19.20
2023-05-04T21:28:40.960Z,19.10
2023-05-04T21:31:10.054Z,19.00
2023-05-04T21:33:38.938Z,18.90
2023-05-04T21:36:17.130Z,18.80
2023-05-04T21:38:47.318Z,18.70
2023-05-04T21:41:18.918Z,18.60
2023-05-04T21:43:49.070Z,18.50
2023-05-04T21:46:18.234Z,18.50
2023-05-04T21:48:47.837Z,18.40
2023-05-04T21:51:18.753Z,18.40
2023-05-04T21:53:49.129Z,18.40
2023-05-04T21:56:18.564Z,18.30
2023-05-04T21:58:47.270Z,18.20
2023-05-04T22:01:18.493Z,18.20
2023-05-04T22:03:47.262Z,18.20
2023-05-04T22:06:15.741Z,18.10
2023-05-04T22:08:43.079Z,18.10
2023-05-04T22:11:12.152Z,18.00
2023-05-04T22:13:39.696Z,18.00
2023-05-04T22:16:09.681Z,18.10
2023-05-04T22:18:37.494Z,18.00
2023-05-04T22:21:05.207Z,18.10
2023-05-04T22:23:33.217Z,18.10
2023-05-04T22:26:01.834Z,18.10
2023-05-04T22:28:29.370Z,18.00
2023-05-04T22:30:56.613Z,18.10
2023-05-04T22:33:25.164Z,18.00
2023-05-04T22:35:52.787Z,18.00
2023-05-04T22:38:19.916Z,18.00
2023-05-04T22:40:50.294Z,18.00
2023-05-04T22:43:17.508Z,17.90
2023-05-04T22:45:44.484Z,17.90
2023-05-04T22:48:14.992Z,18.00
2023-05-04T22:50:42.281Z,18.00
2023-05-04T22:53:10.397Z,18.00
2023-05-04T22:55:37.821Z,18.00
2023-05-04T22:58:04.765Z,17.90
2023-05-04T23:00:33.596Z,17.90
2023-05-04T23:03:01.074Z,17.90
2023-05-04T23:05:28.076Z,18.00
2023-05-04T23:07:55.008Z,18.10
2023-05-04T23:10:22.819Z,18.20
2023-05-04T23:12:50.041Z,18.30
2023-05-04T23:15:19.790Z,18.40
2023-05-04T23:17:46.826Z,18.40
2023-05-04T23:20:13.911Z,18.50
2023-05-04T23:22:40.866Z,18.60
2023-05-04T23:25:08.247Z,18.60
2023-05-04T23:27:35.212Z,18.70
2023-05-04T23:30:02.263Z,18.70
2023-05-04T23:32:29.255Z,18.70
2023-05-04T23:34:56.186Z,18.70
2023-05-04T23:37:23.291Z,18.70
2023-05-04T23:39:52.116Z,18.70
2023-05-04T23:42:18.914Z,18.60
2023-05-04T23:44:45.853Z,18.60
2023-05-04T23:47:12.729Z,18.60
2023-05-04T23:49:39.726Z,18.60
2023-05-04T23:52:06.808Z,18.50
2023-05-04T23:54:33.719Z,18.50
2023-05-04T23:57:00.529Z,18.50
2023-05-04T23:59:27.410Z,18.50
